Terminal Aerodrome Forecast
Issued by NWS

Home | Current Version | Previous Version | Text Only | Print | Product List | Glossary On
Versions: 1 2 3 4 5 6 7 8 9 10 11 12 13 14 15 16 17 18 19 20 21 22 23 24 25
000
FTUS42 KFFC 042343
TAFRYY
TAF
KRYY 042343Z 0500/0524 25008KT 5SM SHRA SCT025 BKN040
      TEMPO 0500/0503 VRB15G25KT 3SM TSRA BKN025CB
     FM050600 28006KT 4SM BR BKN015
     FM051100 00000KT 2SM BR BKN012
     FM051500 25006KT P6SM VCSH SCT012 BKN045
     FM051900 22009G14KT P6SM VCSH BKN050 PROB30 0519/0524 3SM -TSRA
      BKN025CB
      AMD NOT SKED 0504/0512=

USA.gov is the U.S. government's official web portal to all federal, state and local government web resources and services.